Check out our new BloomSky Weather System.

Active alerts


No alerts


Thunder radar  blitzortung!


Rain radar more information rain snow radar


Visit our other weather sites:

Template documentation
and downloads

And another site



Weather Underground History page Text

Daily Summary for April 5, 2017 Units:  Metric    English   Both
« Previous Day
Next Day »
Daily Weekly Monthly Yearly Custom
  High: Low: Average:
Temperature: 23.4 °C 12.6 °C 19.1 °C
Dew Point: 21.9 °C 5.1 °C 10.6 °C
Humidity: 95 % 35 % 61 %
Wind Speed: 24.1 km/h 0 km/h 7.4 km/h
Wind Gust: 35.4 km/h - -
Wind:- - WNW
Pressure: 1019.9 hPa 1005.3 hPa -
Precipitation: 0.25 mm    
Historical Graphs
 
 
Tabular Data for April 5, 2017
Time Temperature Dew Point Pressure Wind Wind Speed Wind Gust Humidity Rainfall Rate (Hourly)
00:02 23.2 °C 21.5 °C 1005.6 hPa SE 4.8 km/h 11.3 km/h 90 % 0 mm
00:07 23.3 °C 21.6 °C 1005.6 hPa South 6.4 km/h 11.3 km/h 90 % 0 mm
00:12 23.3 °C 21.6 °C 1005.6 hPa SE 4.8 km/h 11.3 km/h 90 % 0 mm
00:17 23.3 °C 21.6 °C 1005.6 hPa SSE 3.2 km/h 11.3 km/h 90 % 0 mm
00:22 23.4 °C 21.8 °C 1005.6 hPa South 8 km/h 16.1 km/h 91 % 0 mm
00:27 23.4 °C 21.7 °C 1005.6 hPa South 6.4 km/h 16.1 km/h 90 % 0 mm
00:32 23.4 °C 21.7 °C 1005.6 hPa SSE 6.4 km/h 24.1 km/h 90 % 0 mm
00:37 23.4 °C 21.7 °C 1005.6 hPa South 4.8 km/h 24.1 km/h 90 % 0 mm
00:42 23.4 °C 21.7 °C 1005.6 hPa SE 4.8 km/h 24.1 km/h 90 % 0 mm
00:47 23.4 °C 21.7 °C 1005.6 hPa SSE 6.4 km/h 19.3 km/h 90 % 0 mm
00:52 23.4 °C 21.7 °C 1005.3 hPa ESE 11.3 km/h 14.5 km/h 90 % 0 mm
00:57 23.3 °C 21.7 °C 1005.3 hPa SSE 9.7 km/h 12.9 km/h 91 % 0 mm
01:02 23.3 °C 21.7 °C 1005.3 hPa SW 8 km/h 14.5 km/h 91 % 0 mm
01:07 23.3 °C 21.7 °C 1005.6 hPa South 6.4 km/h 14.5 km/h 91 % 0 mm
01:12 23.2 °C 21.6 °C 1005.6 hPa SSW 8 km/h 14.5 km/h 91 % 0 mm
01:17 23.1 °C 21.5 °C 1005.6 hPa SSW 1.6 km/h 14.5 km/h 91 % 0 mm
01:22 23.1 °C 21.5 °C 1005.6 hPa SW 6.4 km/h 12.9 km/h 91 % 0 mm
01:27 23.1 °C 21.7 °C 1005.6 hPa SSE 1.6 km/h 16.1 km/h 92 % 0 mm
01:32 23.1 °C 21.7 °C 1005.6 hPa SSW 8 km/h 16.1 km/h 92 % 0 mm
01:37 23.1 °C 21.7 °C 1005.6 hPa SSW 6.4 km/h 16.1 km/h 92 % 0 mm
01:42 23.1 °C 21.7 °C 1005.6 hPa SSW 3.2 km/h 14.5 km/h 92 % 0 mm
01:47 23.1 °C 21.7 °C 1005.6 hPa SW 8 km/h 14.5 km/h 92 % 0 mm
01:52 23 °C 21.6 °C 1005.6 hPa SW 4.8 km/h 11.3 km/h 92 % 0 mm
01:57 23 °C 21.6 °C 1006 hPa Calm   9.7 km/h 92 % 0 mm
02:02 22.9 °C 21.5 °C 1006 hPa SSW 1.6 km/h 9.7 km/h 92 % 0 mm
02:07 23 °C 21.6 °C 1006 hPa SSW 3.2 km/h 8 km/h 92 % 0 mm
02:12 23 °C 21.6 °C 1006 hPa Calm   6.4 km/h 92 % 0 mm
02:17 23 °C 21.6 °C 1006 hPa Calm   6.4 km/h 92 % 0 mm
02:22 22.9 °C 21.5 °C 1006 hPa SSW 3.2 km/h 4.8 km/h 92 % 0 mm
02:27 22.9 °C 21.5 °C 1006.3 hPa SSW 4.8 km/h 8 km/h 92 % 0 mm
02:32 22.9 °C 21.7 °C 1006.3 hPa SW 1.6 km/h 8 km/h 93 % 0 mm
02:37 23 °C 21.8 °C 1006.3 hPa WSW 3.2 km/h 8 km/h 93 % 0 mm
02:42 23 °C 21.8 °C 1006.7 hPa Calm   6.4 km/h 93 % 0 mm
02:47 23.1 °C 21.9 °C 1007 hPa Calm   8 km/h 93 % 0 mm
02:52 23.1 °C 21.9 °C 1007 hPa ENE 3.2 km/h 8 km/h 93 % 0 mm
02:57 23.1 °C 21.9 °C 1007 hPa West 3.2 km/h 9.7 km/h 93 % 0 mm
03:02 23.1 °C 21.9 °C 1007 hPa SSW 1.6 km/h 9.7 km/h 93 % 0 mm
03:07 23 °C 21.8 °C 1007 hPa SSE 1.6 km/h 9.7 km/h 93 % 0 mm
03:12 22.8 °C 21.8 °C 1007.3 hPa WSW 1.6 km/h 9.7 km/h 94 % 0 mm
03:17 22.8 °C 21.8 °C 1007 hPa Calm   9.7 km/h 94 % 0.25 mm
03:22 22.7 °C 21.7 °C 1007 hPa SW 4.8 km/h 9.7 km/h 94 % 0.25 mm
03:27 22.6 °C 21.8 °C 1007 hPa WNW 3.2 km/h 8 km/h 95 % 0.25 mm
03:32 22.6 °C 21.8 °C 1007 hPa West 1.6 km/h 8 km/h 95 % 0.25 mm
03:37 22.4 °C 21.4 °C 1007.3 hPa SSW 1.6 km/h 9.7 km/h 94 % 0.25 mm
03:42 22.3 °C 21.5 °C 1007.3 hPa Calm   14.5 km/h 95 % 0.25 mm
03:47 22.2 °C 21.2 °C 1007.3 hPa West 4.8 km/h 14.5 km/h 94 % 0.25 mm
03:52 22 °C 21 °C 1007.3 hPa SSE 1.6 km/h 14.5 km/h 94 % 0.25 mm
03:57 21.9 °C 20.9 °C 1007.3 hPa NNW 1.6 km/h 12.9 km/h 94 % 0.25 mm
04:02 21.8 °C 20.6 °C 1007.3 hPa WNW 1.6 km/h 8 km/h 93 % 0.25 mm
04:07 21.7 °C 20.3 °C 1007.3 hPa NW 3.2 km/h 9.7 km/h 92 % 0.25 mm
04:12 21.7 °C 20.3 °C 1007.3 hPa NW 4.8 km/h 9.7 km/h 92 % 0.25 mm
04:17 21.7 °C 20 °C 1007.3 hPa NW 4.8 km/h 9.7 km/h 90 % 0 mm
04:22 21.7 °C 19.8 °C 1007.3 hPa NNW 3.2 km/h 9.7 km/h 89 % 0 mm
04:27 21.7 °C 19.6 °C 1007.3 hPa Calm   9.7 km/h 88 % 0 mm
04:32 21.6 °C 19.5 °C 1007.3 hPa NW 4.8 km/h 9.7 km/h 88 % 0 mm
04:37 21.5 °C 19.2 °C 1007.7 hPa NNW 1.6 km/h 8 km/h 87 % 0 mm
04:42 21.4 °C 19 °C 1007.7 hPa NW 3.2 km/h 9.7 km/h 86 % 0 mm
04:47 21.3 °C 18.5 °C 1008 hPa NNW 9.7 km/h 9.7 km/h 84 % 0 mm
04:52 21.3 °C 18.1 °C 1008 hPa WNW 4.8 km/h 12.9 km/h 82 % 0 mm
04:58 21.2 °C 17.8 °C 1008 hPa West 3.2 km/h 14.5 km/h 81 % 0 mm
05:03 21.1 °C 17.7 °C 1008.4 hPa WNW 4.8 km/h 14.5 km/h 81 % 0 mm
05:08 20.9 °C 17.7 °C 1008.4 hPa NW 6.4 km/h 14.5 km/h 82 % 0 mm
05:13 20.7 °C 17.7 °C 1008.7 hPa NNW 1.6 km/h 14.5 km/h 83 % 0 mm
05:18 20.4 °C 17 °C 1009 hPa NW 6.4 km/h 12.9 km/h 81 % 0 mm
05:23 19.9 °C 14.5 °C 1009 hPa WNW 12.9 km/h 22.5 km/h 71 % 0 mm
05:28 19.5 °C 14.1 °C 1009.4 hPa NNW 9.7 km/h 25.7 km/h 71 % 0 mm
05:33 19.2 °C 14.2 °C 1009.4 hPa NW 11.3 km/h 25.7 km/h 73 % 0 mm
05:38 18.9 °C 13.7 °C 1009.7 hPa NW 14.5 km/h 25.7 km/h 72 % 0 mm
05:43 18.7 °C 13.5 °C 1009.7 hPa North 14.5 km/h 25.7 km/h 72 % 0 mm
05:48 18.4 °C 13.5 °C 1010 hPa West 11.3 km/h 25.7 km/h 73 % 0 mm
05:53 18.1 °C 13.2 °C 1010 hPa WNW 11.3 km/h 27.4 km/h 73 % 0 mm
05:58 17.8 °C 12.9 °C 1010.4 hPa NNW 16.1 km/h 27.4 km/h 73 % 0 mm
06:03 17.5 °C 12.2 °C 1010.4 hPa NW 9.7 km/h 27.4 km/h 71 % 0 mm
06:08 17.2 °C 11.9 °C 1010.7 hPa NNW 16.1 km/h 22.5 km/h 71 % 0 mm
06:13 16.9 °C 9.8 °C 1010.7 hPa NW 14.5 km/h 25.7 km/h 63 % 0 mm
06:18 16.7 °C 9.6 °C 1011.1 hPa NNW 4.8 km/h 27.4 km/h 63 % 0 mm
06:23 16.4 °C 9.3 °C 1011.4 hPa NW 6.4 km/h 29 km/h 63 % 0 mm
06:28 16.2 °C 8.4 °C 1011.4 hPa NW 9.7 km/h 29 km/h 60 % 0 mm
06:33 16.1 °C 8.3 °C 1011.7 hPa WNW 9.7 km/h 30.6 km/h 60 % 0 mm
06:38 15.9 °C 8.1 °C 1011.7 hPa NNW 6.4 km/h 30.6 km/h 60 % 0 mm
06:43 15.8 °C 8.3 °C 1012.1 hPa West 8 km/h 30.6 km/h 61 % 0 mm
06:48 15.7 °C 8.2 °C 1012.1 hPa NNW 6.4 km/h 22.5 km/h 61 % 0 mm
06:53 15.5 °C 8.2 °C 1012.1 hPa North 14.5 km/h 22.5 km/h 62 % 0 mm
06:58 15.4 °C 8.2 °C 1012.1 hPa WNW 11.3 km/h 24.1 km/h 62 % 0 mm
07:03 15.3 °C 8.1 °C 1012.1 hPa NNW 6.4 km/h 24.1 km/h 62 % 0 mm
07:08 15.2 °C 8.2 °C 1012.4 hPa NNW 4.8 km/h 24.1 km/h 63 % 0 mm
07:13 15.1 °C 8.1 °C 1012.4 hPa NW 8 km/h 17.7 km/h 63 % 0 mm
07:18 14.9 °C 7.7 °C 1012.8 hPa NNW 6.4 km/h 17.7 km/h 62 % 0 mm
07:23 14.9 °C 7.4 °C 1013.1 hPa WNW 16.1 km/h 17.7 km/h 61 % 0 mm
07:28 14.8 °C 7.4 °C 1013.1 hPa NNW 8 km/h 25.7 km/h 61 % 0 mm
07:33 14.7 °C 7.3 °C 1013.4 hPa NW 12.9 km/h 25.7 km/h 61 % 0 mm
07:38 14.6 °C 7.2 °C 1013.4 hPa WNW 4.8 km/h 25.7 km/h 61 % 0 mm
07:43 14.6 °C 7.2 °C 1013.4 hPa NW 14.5 km/h 19.3 km/h 61 % 0 mm
07:48 14.6 °C 7.4 °C 1013.8 hPa NNW 6.4 km/h 19.3 km/h 62 % 0 mm
07:53 14.6 °C 7.9 °C 1013.8 hPa NW 4.8 km/h 19.3 km/h 64 % 0 mm
07:58 14.6 °C 8.1 °C 1014.1 hPa NW 16.1 km/h 17.7 km/h 65 % 0 mm
08:03 14.5 °C 8 °C 1014.1 hPa NW 4.8 km/h 19.3 km/h 65 % 0 mm
08:08 14.4 °C 7.7 °C 1014.1 hPa NW 20.9 km/h 22.5 km/h 64 % 0 mm
08:13 14.4 °C 7.4 °C 1014.1 hPa WNW 17.7 km/h 24.1 km/h 63 % 0 mm
08:18 14.4 °C 7.4 °C 1014.4 hPa WNW 14.5 km/h 27.4 km/h 63 % 0 mm
08:23 14.3 °C 7.4 °C 1014.4 hPa North 9.7 km/h 27.4 km/h 63 % 0 mm
08:28 14.4 °C 7.2 °C 1014.8 hPa WNW 17.7 km/h 27.4 km/h 62 % 0 mm
08:33 14.5 °C 7.5 °C 1014.8 hPa WNW 4.8 km/h 29 km/h 63 % 0 mm
08:38 14.6 °C 7.6 °C 1014.8 hPa NW 14.5 km/h 29 km/h 63 % 0 mm
08:43 14.7 °C 8 °C 1014.8 hPa South 16.1 km/h 29 km/h 64 % 0 mm
08:48 14.7 °C 8 °C 1015.1 hPa WNW 8 km/h 20.9 km/h 64 % 0 mm
08:54 14.8 °C 8.3 °C 1015.5 hPa NW 9.7 km/h 20.9 km/h 65 % 0 mm
08:59 15 °C 8.5 °C 1015.5 hPa ENE 4.8 km/h 20.9 km/h 65 % 0 mm
09:04 14.9 °C 7.9 °C 1015.5 hPa NW 8 km/h 20.9 km/h 63 % 0 mm
09:09 14.8 °C 8.1 °C 1015.5 hPa NW 16.1 km/h 27.4 km/h 64 % 0 mm
09:14 14.9 °C 7.9 °C 1015.5 hPa ENE 4.8 km/h 27.4 km/h 63 % 0 mm
09:19 14.9 °C 7.7 °C 1015.8 hPa WNW 9.7 km/h 27.4 km/h 62 % 0 mm
09:24 14.9 °C 7.9 °C 1015.8 hPa NW 17.7 km/h 27.4 km/h 63 % 0 mm
09:29 14.9 °C 7.9 °C 1015.8 hPa WNW 14.5 km/h 30.6 km/h 63 % 0 mm
09:34 14.9 °C 7.9 °C 1016.1 hPa NNW 14.5 km/h 30.6 km/h 63 % 0 mm
09:39 15.1 °C 7.9 °C 1016.1 hPa NNW 9.7 km/h 30.6 km/h 62 % 0 mm
09:44 15.2 °C 8 °C 1016.1 hPa NNW 8 km/h 29 km/h 62 % 0 mm
09:49 15.3 °C 8.3 °C 1016.1 hPa NNW 8 km/h 27.4 km/h 63 % 0 mm
09:54 15.6 °C 8.1 °C 1016.1 hPa NW 9.7 km/h 25.7 km/h 61 % 0 mm
09:59 15.5 °C 7.8 °C 1016.1 hPa NW 9.7 km/h 25.7 km/h 60 % 0 mm
10:04 15.7 °C 8 °C 1016.1 hPa NNW 11.3 km/h 25.7 km/h 60 % 0 mm
10:09 16 °C 8.5 °C 1016.1 hPa NW 4.8 km/h 25.7 km/h 61 % 0 mm
10:14 16.3 °C 8.8 °C 1016.1 hPa NNW 8 km/h 25.7 km/h 61 % 0 mm
10:19 16.3 °C 8 °C 1016.1 hPa NW 8 km/h 20.9 km/h 58 % 0 mm
10:24 16.2 °C 7.9 °C 1016.5 hPa NW 16.1 km/h 20.9 km/h 58 % 0 mm
10:29 16.1 °C 7.8 °C 1016.5 hPa NNW 14.5 km/h 27.4 km/h 58 % 0 mm
10:34 16 °C 8 °C 1016.5 hPa West 6.4 km/h 27.4 km/h 59 % 0 mm
10:39 16.3 °C 8.5 °C 1016.8 hPa WSW 11.3 km/h 27.4 km/h 60 % 0 mm
10:44 16.4 °C 8.6 °C 1016.8 hPa NNW 9.7 km/h 25.7 km/h 60 % 0 mm
10:47 16.4 °C 8.4 °C 1016.8 hPa NNW 6.4 km/h 25.7 km/h 59 % 0 mm
10:52 16.6 °C 9 °C 1016.8 hPa NW 9.7 km/h 25.7 km/h 61 % 0 mm
10:57 16.7 °C 7.9 °C 1017.2 hPa North 16.1 km/h 25.7 km/h 56 % 0 mm
11:02 16.7 °C 8.4 °C 1017.2 hPa NW 9.7 km/h 25.7 km/h 58 % 0 mm
11:07 16.6 °C 8.3 °C 1017.2 hPa NW 11.3 km/h 25.7 km/h 58 % 0 mm
11:12 16.6 °C 8 °C 1017.2 hPa NW 11.3 km/h 25.7 km/h 57 % 0 mm
11:17 16.3 °C 7.8 °C 1017.2 hPa NW 14.5 km/h 35.4 km/h 57 % 0 mm
11:22 16.2 °C 7.9 °C 1017.2 hPa NW 8 km/h 35.4 km/h 58 % 0 mm
11:27 16.4 °C 8.4 °C 1017.2 hPa NNW 12.9 km/h 35.4 km/h 59 % 0 mm
11:32 16.8 °C 8.5 °C 1017.2 hPa NE 3.2 km/h 30.6 km/h 58 % 0 mm
11:37 17.1 °C 8.3 °C 1017.2 hPa NNW 6.4 km/h 30.6 km/h 56 % 0 mm
11:42 17.7 °C 8.5 °C 1017.2 hPa NW 11.3 km/h 25.7 km/h 55 % 0 mm
11:47 17.8 °C 8.4 °C 1017.2 hPa NNW 14.5 km/h 25.7 km/h 54 % 0 mm
11:52 17.8 °C 8.4 °C 1017.2 hPa NW 17.7 km/h 27.4 km/h 54 % 0 mm
11:57 17.9 °C 8.7 °C 1017.2 hPa NNW 11.3 km/h 27.4 km/h 55 % 0 mm
12:02 18.3 °C 8.6 °C 1017.2 hPa NW 16.1 km/h 27.4 km/h 53 % 0 mm
12:07 18.5 °C 8.7 °C 1017.2 hPa WNW 14.5 km/h 25.7 km/h 53 % 0 mm
12:12 18.4 °C 8.9 °C 1017.2 hPa NW 12.9 km/h 25.7 km/h 54 % 0 mm
12:17 18.7 °C 8.9 °C 1017.5 hPa NNE 4.8 km/h 25.7 km/h 53 % 0 mm
12:22 18.9 °C 8.2 °C 1017.5 hPa NW 11.3 km/h 25.7 km/h 50 % 0 mm
12:27 18.6 °C 8.6 °C 1017.5 hPa NNW 4.8 km/h 29 km/h 52 % 0 mm
12:32 18.7 °C 8.4 °C 1017.2 hPa NNW 8 km/h 29 km/h 51 % 0 mm
12:37 18.8 °C 8.4 °C 1017.2 hPa North 9.7 km/h 29 km/h 51 % 0 mm
12:42 18.7 °C 8.1 °C 1017.2 hPa NW 11.3 km/h 25.7 km/h 50 % 0 mm
12:47 19.1 °C 9 °C 1017.2 hPa NW 9.7 km/h 25.7 km/h 52 % 0 mm
12:52 19.3 °C 8.9 °C 1017.2 hPa NW 6.4 km/h 25.7 km/h 51 % 0 mm
12:57 19.4 °C 9 °C 1017.2 hPa WSW 3.2 km/h 25.7 km/h 51 % 0 mm
13:02 19.6 °C 9.2 °C 1017.2 hPa WSW 6.4 km/h 25.7 km/h 51 % 0 mm
13:07 19.6 °C 9.2 °C 1017.2 hPa WNW 8 km/h 24.1 km/h 51 % 0 mm
13:12 19.8 °C 9.1 °C 1017.2 hPa North 9.7 km/h 24.1 km/h 50 % 0 mm
13:17 19.7 °C 8.7 °C 1017.2 hPa NW 14.5 km/h 29 km/h 49 % 0 mm
13:22 19.6 °C 8.6 °C 1017.2 hPa NW 8 km/h 29 km/h 49 % 0 mm
13:27 19.8 °C 8.8 °C 1017.2 hPa NW 8 km/h 29 km/h 49 % 0 mm
13:32 20 °C 9 °C 1017.2 hPa South 3.2 km/h 27.4 km/h 49 % 0 mm
13:37 19.9 °C 8.9 °C 1017.2 hPa NNW 8 km/h 27.4 km/h 49 % 0 mm
13:42 20.2 °C 9.1 °C 1017.2 hPa WNW 6.4 km/h 24.1 km/h 49 % 0 mm
13:43 20.3 °C 9.2 °C 1017.2 hPa NNW 16.1 km/h 24.1 km/h 49 % 0 mm
13:48 20.1 °C 8.4 °C 1017.2 hPa NNW 6.4 km/h 24.1 km/h 47 % 0 mm
13:53 19.9 °C 8.9 °C 1017.2 hPa WNW 9.7 km/h 25.7 km/h 49 % 0 mm
13:58 20.1 °C 8.7 °C 1016.8 hPa North 8 km/h 25.7 km/h 48 % 0 mm
14:03 20.3 °C 8.9 °C 1017.2 hPa WNW 3.2 km/h 27.4 km/h 48 % 0 mm
14:08 20.3 °C 8.3 °C 1017.2 hPa NNW 3.2 km/h 27.4 km/h 46 % 0 mm
14:13 20.3 °C 8.6 °C 1017.2 hPa NW 4.8 km/h 27.4 km/h 47 % 0 mm
14:18 20.4 °C 8.4 °C 1017.2 hPa NNW 11.3 km/h 27.4 km/h 46 % 0 mm
14:23 20.4 °C 8.7 °C 1017.2 hPa NW 16.1 km/h 24.1 km/h 47 % 0 mm
14:28 20.7 °C 8.7 °C 1017.2 hPa North 16.1 km/h 24.1 km/h 46 % 0 mm
14:33 20.6 °C 8.2 °C 1016.8 hPa NNW 17.7 km/h 24.1 km/h 45 % 0 mm
14:38 20.7 °C 8 °C 1016.8 hPa NNW 14.5 km/h 29 km/h 44 % 0 mm
14:43 20.6 °C 8.2 °C 1017.2 hPa NW 12.9 km/h 29 km/h 45 % 0 mm
14:45 20.6 °C 8.2 °C 1016.8 hPa NNW 12.9 km/h 29 km/h 45 % 0 mm
14:50 20.7 °C 8.3 °C 1016.8 hPa NNW 19.3 km/h 30.6 km/h 45 % 0 mm
14:55 20.8 °C 8.4 °C 1016.5 hPa WNW 8 km/h 30.6 km/h 45 % 0 mm
15:00 20.9 °C 7.9 °C 1016.5 hPa West 11.3 km/h 33.8 km/h 43 % 0 mm
15:05 21.1 °C 8.4 °C 1016.5 hPa NNW 24.1 km/h 33.8 km/h 44 % 0 mm
15:10 21.1 °C 8 °C 1016.8 hPa NW 20.9 km/h 33.8 km/h 43 % 0 mm
15:15 21.1 °C 8 °C 1016.5 hPa NW 17.7 km/h 32.2 km/h 43 % 0 mm
15:20 21.4 °C 8.3 °C 1016.5 hPa NW 19.3 km/h 32.2 km/h 43 % 0 mm
15:25 21.3 °C 7.9 °C 1016.5 hPa NNW 9.7 km/h 32.2 km/h 42 % 0 mm
15:30 21.5 °C 7.3 °C 1016.5 hPa NW 4.8 km/h 27.4 km/h 40 % 0 mm
15:35 21.6 °C 7.4 °C 1016.5 hPa NW 14.5 km/h 27.4 km/h 40 % 0 mm
15:40 21.6 °C 7.4 °C 1016.1 hPa NNW 14.5 km/h 29 km/h 40 % 0 mm
15:45 21.6 °C 7.4 °C 1016.5 hPa NNW 24.1 km/h 29 km/h 40 % 0 mm
15:50 21.4 °C 6.9 °C 1016.1 hPa NW 12.9 km/h 29 km/h 39 % 0 mm
15:55 21.6 °C 7.4 °C 1016.1 hPa WNW 8 km/h 29 km/h 40 % 0 mm
16:00 21.8 °C 8 °C 1016.1 hPa NW 9.7 km/h 27.4 km/h 41 % 0 mm
16:05 21.9 °C 8.4 °C 1016.1 hPa NNW 4.8 km/h 24.1 km/h 42 % 0 mm
16:10 21.9 °C 7.7 °C 1016.1 hPa West 6.4 km/h 24.1 km/h 40 % 0 mm
16:15 21.8 °C 8 °C 1016.1 hPa WNW 20.9 km/h 30.6 km/h 41 % 0 mm
16:20 21.7 °C 7.9 °C 1016.1 hPa NNW 6.4 km/h 30.6 km/h 41 % 0 mm
16:25 22 °C 8.1 °C 1016.1 hPa WNW 9.7 km/h 30.6 km/h 41 % 0 mm
16:30 21.9 °C 8.1 °C 1016.1 hPa WNW 3.2 km/h 29 km/h 41 % 0 mm
16:35 22.1 °C 7.9 °C 1016.1 hPa NW 6.4 km/h 29 km/h 40 % 0 mm
16:40 22.2 °C 8.3 °C 1016.1 hPa WNW 9.7 km/h 29 km/h 41 % 0 mm
16:46 22.4 °C 8.5 °C 1016.1 hPa WNW 11.3 km/h 20.9 km/h 41 % 0 mm
16:51 22.4 °C 7.8 °C 1016.1 hPa WNW 9.7 km/h 20.9 km/h 39 % 0 mm
16:56 22.2 °C 7.6 °C 1016.1 hPa WNW 16.1 km/h 29 km/h 39 % 0 mm
17:01 22 °C 7.4 °C 1016.1 hPa WNW 20.9 km/h 29 km/h 39 % 0 mm
17:06 22 °C 7.4 °C 1016.1 hPa NW 17.7 km/h 29 km/h 39 % 0 mm
17:11 22.1 °C 7.1 °C 1016.1 hPa NNE 19.3 km/h 24.1 km/h 38 % 0 mm
17:16 22.1 °C 7.1 °C 1016.1 hPa NNW 11.3 km/h 22.5 km/h 38 % 0 mm
17:21 22.3 °C 7.3 °C 1016.1 hPa NW 8 km/h 22.5 km/h 38 % 0 mm
17:26 22.4 °C 7.4 °C 1016.1 hPa West 22.5 km/h 22.5 km/h 38 % 0 mm
17:31 22.2 °C 7.2 °C 1016.1 hPa NW 3.2 km/h 29 km/h 38 % 0 mm
17:36 22.2 °C 7.2 °C 1016.1 hPa NW 9.7 km/h 29 km/h 38 % 0 mm
17:41 22.2 °C 7.2 °C 1016.1 hPa North 4.8 km/h 29 km/h 38 % 0 mm
17:46 22.1 °C 7.1 °C 1016.1 hPa NW 12.9 km/h 22.5 km/h 38 % 0 mm
17:51 22 °C 7 °C 1016.1 hPa NW 8 km/h 24.1 km/h 38 % 0 mm
17:56 22.2 °C 7.2 °C 1016.1 hPa NW 11.3 km/h 24.1 km/h 38 % 0 mm
18:01 22.3 °C 7.3 °C 1016.1 hPa NNW 6.4 km/h 24.1 km/h 38 % 0 mm
18:06 22.2 °C 6.8 °C 1016.1 hPa WNW 6.4 km/h 24.1 km/h 37 % 0 mm
18:11 22.2 °C 7.2 °C 1016.1 hPa NW 8 km/h 24.1 km/h 38 % 0 mm
18:16 22.1 °C 6.3 °C 1016.1 hPa NNW 12.9 km/h 24.1 km/h 36 % 0 mm
18:21 22.1 °C 6.3 °C 1016.5 hPa WNW 14.5 km/h 20.9 km/h 36 % 0 mm
18:26 22.1 °C 6.3 °C 1016.5 hPa NNW 8 km/h 25.7 km/h 36 % 0 mm
18:31 22.1 °C 6.3 °C 1016.5 hPa NW 12.9 km/h 25.7 km/h 36 % 0 mm
18:36 21.9 °C 5.7 °C 1016.5 hPa NNW 12.9 km/h 25.7 km/h 35 % 0 mm
18:41 21.8 °C 5.7 °C 1016.8 hPa NW 8 km/h 24.1 km/h 35 % 0 mm
18:46 21.8 °C 5.7 °C 1016.8 hPa NW 4.8 km/h 24.1 km/h 35 % 0 mm
18:51 21.7 °C 5.6 °C 1016.8 hPa WNW 9.7 km/h 22.5 km/h 35 % 0 mm
18:56 21.7 °C 6 °C 1016.8 hPa NW 11.3 km/h 22.5 km/h 36 % 0 mm
19:01 21.6 °C 5.9 °C 1016.8 hPa WNW 14.5 km/h 20.9 km/h 36 % 0 mm
19:06 21.5 °C 5.8 °C 1016.8 hPa NNW 9.7 km/h 22.5 km/h 36 % 0 mm
19:11 21.4 °C 5.7 °C 1016.8 hPa NNW 8 km/h 22.5 km/h 36 % 0 mm
19:16 21.3 °C 5.6 °C 1017.2 hPa NW 8 km/h 22.5 km/h 36 % 0 mm
19:21 21.1 °C 5.4 °C 1016.8 hPa WNW 11.3 km/h 19.3 km/h 36 % 0 mm
19:26 20.9 °C 5.3 °C 1017.2 hPa NNW 6.4 km/h 19.3 km/h 36 % 0 mm
19:31 20.7 °C 5.5 °C 1017.2 hPa NW 6.4 km/h 19.3 km/h 37 % 0 mm
19:36 20.6 °C 5.4 °C 1017.2 hPa NNW 6.4 km/h 19.3 km/h 37 % 0 mm
19:41 20.3 °C 5.1 °C 1017.2 hPa NNW 3.2 km/h 14.5 km/h 37 % 0 mm
19:46 20.2 °C 5.4 °C 1017.2 hPa NW 4.8 km/h 12.9 km/h 38 % 0 mm
19:51 20.1 °C 5.3 °C 1017.5 hPa NW 3.2 km/h 12.9 km/h 38 % 0 mm
19:56 19.9 °C 5.5 °C 1017.5 hPa NW 1.6 km/h 12.9 km/h 39 % 0 mm
20:01 19.7 °C 5.7 °C 1017.5 hPa NW 8 km/h 11.3 km/h 40 % 0 mm
20:06 19.7 °C 5.4 °C 1017.5 hPa NW 4.8 km/h 11.3 km/h 39 % 0 mm
20:11 19.6 °C 5.3 °C 1017.5 hPa NW 4.8 km/h 11.3 km/h 39 % 0 mm
20:16 19.6 °C 5.6 °C 1017.8 hPa NW 3.2 km/h 12.9 km/h 40 % 0 mm
20:21 19.5 °C 5.5 °C 1017.8 hPa NW 3.2 km/h 12.9 km/h 40 % 0 mm
20:26 19.4 °C 5.5 °C 1017.8 hPa NW 3.2 km/h 12.9 km/h 40 % 0 mm
20:31 19.3 °C 5.7 °C 1017.8 hPa NW 6.4 km/h 11.3 km/h 41 % 0 mm
20:36 19.1 °C 5.5 °C 1017.8 hPa NW 3.2 km/h 9.7 km/h 41 % 0 mm
20:42 19.1 °C 5.9 °C 1017.8 hPa NW 1.6 km/h 9.7 km/h 42 % 0 mm
20:43 19 °C 5.8 °C 1017.8 hPa NNW 1.6 km/h 9.7 km/h 42 % 0 mm
20:47 18.9 °C 5.7 °C 1018.2 hPa NW 1.6 km/h 9.7 km/h 42 % 0 mm
20:50 18.8 °C 6 °C 1018.2 hPa NNW 3.2 km/h 6.4 km/h 43 % 0 mm
20:55 18.7 °C 5.9 °C 1018.2 hPa NW 3.2 km/h 8 km/h 43 % 0 mm
21:00 18.6 °C 5.8 °C 1018.2 hPa North 3.2 km/h 8 km/h 43 % 0 mm
21:05 18.4 °C 5.9 °C 1018.5 hPa Calm   8 km/h 44 % 0 mm
21:10 18.3 °C 5.8 °C 1018.5 hPa NW 1.6 km/h 6.4 km/h 44 % 0 mm
21:15 18.1 °C 6 °C 1018.5 hPa WNW 1.6 km/h 4.8 km/h 45 % 0 mm
21:20 17.8 °C 6 °C 1018.8 hPa Calm   4.8 km/h 46 % 0 mm
21:25 17.4 °C 6 °C 1018.8 hPa Calm   1.6 km/h 47 % 0 mm
21:30 17.1 °C 6 °C 1018.8 hPa Calm   1.6 km/h 48 % 0 mm
21:31 17.1 °C 6 °C 1018.8 hPa Calm   1.6 km/h 48 % 0 mm
21:36 16.8 °C 6.3 °C 1018.8 hPa Calm   1.6 km/h 50 % 0 mm
21:41 16.6 °C 6.1 °C 1018.8 hPa Calm   1.6 km/h 50 % 0 mm
21:46 16.3 °C 6.1 °C 1019.2 hPa Calm   1.6 km/h 51 % 0 mm
21:51 15.9 °C 6.3 °C 1019.2 hPa Calm   1.6 km/h 53 % 0 mm
21:56 15.7 °C 6.4 °C 1019.2 hPa Calm   1.6 km/h 54 % 0 mm
22:01 15.4 °C 6.4 °C 1019.2 hPa Calm   1.6 km/h 55 % 0 mm
22:06 15.1 °C 6.1 °C 1019.2 hPa Calm   1.6 km/h 55 % 0 mm
22:11 14.8 °C 6.4 °C 1019.2 hPa Calm     57 % 0 mm
22:16 14.7 °C 6.5 °C 1019.5 hPa Calm     58 % 0 mm
22:21 14.4 °C 6.5 °C 1019.2 hPa Calm     59 % 0 mm
22:26 14.2 °C 6.3 °C 1019.2 hPa Calm     59 % 0 mm
22:31 13.9 °C 6.5 °C 1019.5 hPa Calm     61 % 0 mm
22:36 13.9 °C 6.5 °C 1019.5 hPa Calm     61 % 0 mm
22:41 13.8 °C 6.6 °C 1019.5 hPa Calm     62 % 0 mm
22:46 13.6 °C 6.5 °C 1019.5 hPa Calm     62 % 0 mm
22:51 13.4 °C 6.7 °C 1019.5 hPa Calm     64 % 0 mm
22:56 13.3 °C 6.6 °C 1019.5 hPa Calm     64 % 0 mm
23:01 13.1 °C 6.7 °C 1019.5 hPa Calm     65 % 0 mm
23:06 13.1 °C 7.1 °C 1019.5 hPa Calm     67 % 0 mm
23:11 13 °C 6.8 °C 1019.5 hPa Calm     66 % 0 mm
23:16 12.9 °C 7.1 °C 1019.5 hPa Calm     68 % 0 mm
23:21 13 °C 7.2 °C 1019.9 hPa Calm     68 % 0 mm
23:26 13 °C 7.2 °C 1019.9 hPa Calm     68 % 0 mm
23:32 12.9 °C 7.3 °C 1019.9 hPa Calm     69 % 0 mm
23:37 12.9 °C 7.6 °C 1019.9 hPa Calm     70 % 0 mm
23:42 13.1 °C 7.8 °C 1019.9 hPa Calm   1.6 km/h 70 % 0 mm
23:47 13.1 °C 7.5 °C 1019.9 hPa Calm   1.6 km/h 69 % 0 mm
23:52 12.8 °C 7.3 °C 1019.9 hPa Calm   1.6 km/h 69 % 0 mm
23:57 12.6 °C 7.5 °C 1019.9 hPa Calm   1.6 km/h 71 % 0 mm
Spring, Texas: Villages of Bridgestone
Compliments of Weather Underground - 2.75 mb

Script developed by  Jim McMurry - jmcmurry@mwt.net Adapted for the template by  Wim van der Kuil - Leuven-Template.eu

You find our weather info also at:

UK Metoffice

WeatherCloud

Weather Underground

Mid-South Weather Network

AWEKAS

Citizen Weather Observer Program (CWOP)

HAMweather, WeatherForYou, PWS Weather

Equipment we use:

Weather-station
Davis Vantage Vue

Weather-program
Meteohub

Weather-server
Debian 7.9 x86 (Guest)

Provider
DreamHost

Davis Vantage Vue

Meteohub

Debian 7.9 x86 (Guest)

DreamHost